createdAt,value
2023-10-20T00:01:38.700Z,10.18
2023-10-20T00:04:05.047Z,9.25
2023-10-20T00:06:31.330Z,9.55
2023-10-20T00:08:58.069Z,10.00
2023-10-20T00:11:26.793Z,9.30
2023-10-20T00:13:53.833Z,10.45
2023-10-20T00:16:26.436Z,9.10
2023-10-20T00:18:52.976Z,9.23
2023-10-20T00:21:19.585Z,8.57
2023-10-20T00:23:46.000Z,9.48
2023-10-20T00:26:12.394Z,8.95
2023-10-20T00:28:38.682Z,9.32
2023-10-20T00:31:05.071Z,9.38
2023-10-20T00:33:31.380Z,9.93
2023-10-20T00:35:58.007Z,9.77
2023-10-20T00:38:24.354Z,9.85
2023-10-20T00:40:50.951Z,9.02
2023-10-20T00:43:17.253Z,8.70
2023-10-20T00:45:45.128Z,9.60
2023-10-20T00:48:12.522Z,9.43
2023-10-20T00:50:40.030Z,9.07
2023-10-20T00:53:07.750Z,9.15
2023-10-20T00:55:34.628Z,10.02
2023-10-20T00:58:00.899Z,9.63
2023-10-20T01:00:27.201Z,10.35
2023-10-20T01:02:54.513Z,9.82
2023-10-20T01:05:24.085Z,9.93
2023-10-20T01:07:50.580Z,9.05
2023-10-20T01:10:17.074Z,10.00
2023-10-20T01:12:43.418Z,9.57
2023-10-20T01:15:11.028Z,9.95
2023-10-20T01:17:37.425Z,9.10
2023-10-20T01:20:05.207Z,9.15
2023-10-20T01:22:31.672Z,9.52
2023-10-20T01:24:58.479Z,9.32
2023-10-20T01:27:24.790Z,9.20
2023-10-20T01:29:51.106Z,7.88
2023-10-20T01:32:17.410Z,8.48
2023-10-20T01:34:43.784Z,8.18
2023-10-20T01:37:12.794Z,8.80
2023-10-20T01:39:39.452Z,7.82
2023-10-20T01:42:05.725Z,7.85
2023-10-20T01:44:32.067Z,7.53
2023-10-20T01:46:58.604Z,6.75
2023-10-20T01:49:24.914Z,8.25
2023-10-20T01:51:51.600Z,7.53
2023-10-20T01:54:18.066Z,7.72
2023-10-20T01:56:45.088Z,7.35
2023-10-20T01:59:11.869Z,6.68
2023-10-20T02:01:38.187Z,7.57
2023-10-20T02:04:04.551Z,7.90
2023-10-20T02:06:30.849Z,7.97
2023-10-20T02:08:57.173Z,7.80
2023-10-20T02:11:23.440Z,7.50
2023-10-20T02:13:49.753Z,7.43
2023-10-20T02:16:16.636Z,8.30
2023-10-20T02:21:10.393Z,7.32
2023-10-20T02:23:37.287Z,7.40
2023-10-20T02:28:29.839Z,7.07
2023-10-20T02:31:00.807Z,7.47
2023-10-20T02:33:27.305Z,7.97
2023-10-20T02:35:55.514Z,6.70
2023-10-20T02:38:21.866Z,7.85
2023-10-20T02:40:54.720Z,7.30
2023-10-20T02:43:22.265Z,7.63
2023-10-20T02:45:53.579Z,7.80
2023-10-20T02:48:20.944Z,7.22
2023-10-20T02:50:47.519Z,7.80
2023-10-20T02:53:16.759Z,7.65
2023-10-20T02:55:43.570Z,8.15
2023-10-20T02:58:13.476Z,7.63
2023-10-20T03:00:46.229Z,8.05
2023-10-20T03:03:13.438Z,7.90
2023-10-20T03:05:44.640Z,8.25
2023-10-20T03:08:11.602Z,8.52
2023-10-20T03:13:05.428Z,8.45
2023-10-20T03:15:32.611Z,7.70
2023-10-20T03:18:00.154Z,8.32
2023-10-20T03:20:29.300Z,8.43
2023-10-20T03:22:56.025Z,8.27
2023-10-20T03:25:22.530Z,8.25
2023-10-20T03:27:49.141Z,8.60
2023-10-20T03:30:18.623Z,8.40
2023-10-20T03:32:49.391Z,8.15
2023-10-20T03:35:17.260Z,7.47
2023-10-20T03:37:44.216Z,8.05
2023-10-20T03:40:17.366Z,8.10
2023-10-20T03:42:44.297Z,7.85
2023-10-20T03:45:11.759Z,7.32
2023-10-20T03:47:40.170Z,7.07
2023-10-20T03:50:17.262Z,6.95
2023-10-20T03:52:46.348Z,7.50
2023-10-20T03:55:15.877Z,7.18
2023-10-20T03:57:43.003Z,7.47
2023-10-20T04:00:19.008Z,8.00
2023-10-20T04:02:47.754Z,6.72
2023-10-20T04:05:16.347Z,7.35
2023-10-20T04:07:43.330Z,7.43
2023-10-20T04:10:09.652Z,7.68
2023-10-20T04:12:37.545Z,7.72
2023-10-20T04:15:03.973Z,8.05
2023-10-20T04:17:30.305Z,7.88
2023-10-20T04:19:56.749Z,7.10
2023-10-20T04:22:24.302Z,7.82
2023-10-20T04:24:50.550Z,7.97
2023-10-20T04:27:22.980Z,7.93
2023-10-20T04:30:07.767Z,8.32
2023-10-20T04:32:52.607Z,8.02
2023-10-20T04:35:37.461Z,7.80
2023-10-20T04:38:29.900Z,7.38
2023-10-20T04:41:14.683Z,7.55
2023-10-20T04:43:43.695Z,7.90
2023-10-20T04:46:36.393Z,7.82
2023-10-20T04:49:21.017Z,7.93
2023-10-20T04:52:05.362Z,8.45
2023-10-20T04:54:52.157Z,7.80
2023-10-20T04:57:18.921Z,9.20
2023-10-20T04:59:45.724Z,7.80
2023-10-20T05:04:53.227Z,8.65
2023-10-20T05:07:22.306Z,8.90
2023-10-20T05:09:55.635Z,9.52
2023-10-20T05:12:21.908Z,8.82
2023-10-20T05:14:50.846Z,9.38
2023-10-20T05:17:19.066Z,9.40
2023-10-20T05:19:45.688Z,9.18
2023-10-20T05:22:11.953Z,9.27
2023-10-20T05:24:38.264Z,9.52
2023-10-20T05:27:04.922Z,8.73
2023-10-20T05:29:31.282Z,8.98
2023-10-20T05:31:58.478Z,8.93
2023-10-20T05:34:24.866Z,8.55
2023-10-20T05:36:51.115Z,9.48
2023-10-20T05:39:22.077Z,9.27
2023-10-20T05:41:49.160Z,8.38
2023-10-20T05:44:16.008Z,8.45
2023-10-20T05:49:09.691Z,9.30
2023-10-20T05:51:36.140Z,9.80
2023-10-20T05:54:04.446Z,9.77
2023-10-20T05:56:31.094Z,8.68
2023-10-20T05:58:57.390Z,9.23
2023-10-20T06:01:23.704Z,8.40
2023-10-20T06:03:50.671Z,9.13
2023-10-20T06:06:17.101Z,9.75
2023-10-20T06:08:43.409Z,9.77
2023-10-20T06:11:09.749Z,8.15
2023-10-20T06:13:36.958Z,8.88
2023-10-20T06:16:10.757Z,8.85
2023-10-20T06:18:38.373Z,8.18
2023-10-20T06:23:31.296Z,8.88
2023-10-20T06:25:57.971Z,8.70
2023-10-20T06:28:24.275Z,8.77
2023-10-20T06:30:52.000Z,8.95
2023-10-20T06:33:18.454Z,8.63
2023-10-20T06:35:53.768Z,9.15
2023-10-20T06:38:26.541Z,8.38
2023-10-20T06:40:53.507Z,9.18
2023-10-20T06:43:21.020Z,8.57
2023-10-20T06:45:55.939Z,8.32
2023-10-20T06:48:22.258Z,7.68
2023-10-20T06:50:48.584Z,8.02
2023-10-20T06:53:15.077Z,8.57
2023-10-20T06:55:59.867Z,8.63
2023-10-20T06:58:28.820Z,9.00
2023-10-20T07:00:55.079Z,7.82
2023-10-20T07:03:21.676Z,8.45
2023-10-20T07:05:48.662Z,7.28
2023-10-20T07:10:41.178Z,8.05
2023-10-20T07:13:08.077Z,7.95
2023-10-20T07:18:01.103Z,8.18
2023-10-20T07:20:27.693Z,7.88
2023-10-20T07:22:53.974Z,8.40
2023-10-20T07:25:20.278Z,8.43
2023-10-20T07:27:47.419Z,8.48
2023-10-20T07:30:14.089Z,8.23
2023-10-20T07:32:40.561Z,8.73
2023-10-20T07:35:07.960Z,8.60
2023-10-20T07:37:35.195Z,8.43
2023-10-20T07:40:01.684Z,9.07
2023-10-20T07:42:28.125Z,8.82
2023-10-20T07:44:54.461Z,8.02
2023-10-20T07:47:20.816Z,9.50
2023-10-20T07:49:47.346Z,8.15
2023-10-20T07:52:13.618Z,8.55
2023-10-20T07:54:40.348Z,9.10
2023-10-20T07:57:08.216Z,9.05
2023-10-20T07:59:35.675Z,8.45
2023-10-20T08:02:02.761Z,9.63
2023-10-20T08:04:29.283Z,9.10
2023-10-20T08:06:56.403Z,8.75
2023-10-20T08:09:22.969Z,8.95
2023-10-20T08:11:49.258Z,8.23
2023-10-20T08:14:15.593Z,9.15
2023-10-20T08:16:41.906Z,9.70
2023-10-20T08:19:08.449Z,9.68
2023-10-20T08:21:34.713Z,9.20
2023-10-20T08:24:01.023Z,9.25
2023-10-20T08:26:27.321Z,10.82
2023-10-20T08:28:53.613Z,10.48
2023-10-20T08:31:22.803Z,10.07
2023-10-20T08:33:49.768Z,9.38
2023-10-20T08:38:43.175Z,8.55
2023-10-20T08:41:13.557Z,8.75
2023-10-20T08:43:41.543Z,7.95
2023-10-20T08:46:11.097Z,8.60
2023-10-20T08:48:38.294Z,7.78
2023-10-20T08:51:05.155Z,8.18
2023-10-20T08:53:35.757Z,8.65
2023-10-20T08:56:02.767Z,8.05
2023-10-20T09:00:58.854Z,7.55
2023-10-20T09:03:38.369Z,8.35
2023-10-20T09:06:07.160Z,7.90
2023-10-20T09:08:35.356Z,8.07
2023-10-20T09:11:01.954Z,8.15
2023-10-20T09:13:33.387Z,7.78
2023-10-20T09:15:59.826Z,8.27
2023-10-20T09:18:26.981Z,9.05
2023-10-20T09:21:01.655Z,9.82
2023-10-20T09:23:28.137Z,10.00
2023-10-20T09:25:55.442Z,10.48
2023-10-20T09:28:21.674Z,9.45
2023-10-20T09:30:49.474Z,8.20
2023-10-20T09:33:15.921Z,8.77
2023-10-20T09:35:43.580Z,8.50
2023-10-20T09:38:11.425Z,8.90
2023-10-20T09:40:39.481Z,10.13
2023-10-20T09:43:25.077Z,11.02
2023-10-20T09:45:57.531Z,9.25
2023-10-20T09:48:25.336Z,8.70
2023-10-20T09:50:52.035Z,9.40
2023-10-20T09:53:19.108Z,9.18
2023-10-20T09:58:13.712Z,8.80
2023-10-20T10:00:42.699Z,8.45
2023-10-20T10:03:10.151Z,8.95
2023-10-20T10:05:41.131Z,8.98
2023-10-20T10:08:08.573Z,9.70
2023-10-20T10:10:36.906Z,9.07
2023-10-20T10:13:06.507Z,8.15
2023-10-20T10:15:42.410Z,8.55
2023-10-20T10:18:12.205Z,8.85
2023-10-20T10:20:47.267Z,7.90
2023-10-20T10:23:15.617Z,7.93
2023-10-20T10:25:43.276Z,6.78
2023-10-20T10:28:14.887Z,6.47
2023-10-20T10:30:42.613Z,6.53
2023-10-20T10:33:12.181Z,5.35
2023-10-20T10:35:39.624Z,5.28
2023-10-20T10:38:09.208Z,5.07
2023-10-20T10:40:35.692Z,4.90
2023-10-20T10:43:02.035Z,4.68
2023-10-20T10:45:31.296Z,4.07
2023-10-20T10:48:08.806Z,3.95
2023-10-20T10:50:39.240Z,3.85
2023-10-20T10:53:05.549Z,3.67
2023-10-20T10:55:32.138Z,3.78
2023-10-20T10:57:58.922Z,3.17
2023-10-20T11:00:25.829Z,3.88
2023-10-20T11:05:18.985Z,3.40
2023-10-20T11:07:57.615Z,3.70
2023-10-20T11:10:29.676Z,2.80
2023-10-20T11:12:59.562Z,2.95
2023-10-20T11:15:29.749Z,3.10
2023-10-20T11:18:00.937Z,3.10
2023-10-20T11:20:30.924Z,2.95
2023-10-20T11:22:57.902Z,3.33
2023-10-20T11:25:25.472Z,2.70
2023-10-20T11:27:55.294Z,2.83
2023-10-20T11:30:32.234Z,3.00
2023-10-20T11:32:59.006Z,3.10
2023-10-20T11:35:26.068Z,3.33
2023-10-20T11:37:52.870Z,2.85
2023-10-20T11:40:19.827Z,2.53
2023-10-20T11:45:13.860Z,2.15
2023-10-20T11:47:40.743Z,2.15
2023-10-20T11:52:39.913Z,1.75
2023-10-20T11:55:06.922Z,1.65
2023-10-20T11:57:33.943Z,1.80
2023-10-20T12:00:00.507Z,2.00
2023-10-20T12:02:26.829Z,1.85
2023-10-20T12:04:53.350Z,1.83
2023-10-20T12:07:20.055Z,1.70
2023-10-20T12:12:13.459Z,1.48
2023-10-20T12:14:39.758Z,1.85
2023-10-20T12:17:06.031Z,1.60
2023-10-20T12:19:32.281Z,2.17
2023-10-20T12:21:58.524Z,1.60
2023-10-20T12:24:24.810Z,1.60
2023-10-20T12:26:51.101Z,1.40
2023-10-20T12:29:20.801Z,1.48
2023-10-20T12:31:47.335Z,1.38
2023-10-20T12:34:13.684Z,1.55
2023-10-20T12:36:42.349Z,1.33
2023-10-20T12:39:09.211Z,1.13
2023-10-20T12:44:03.444Z,1.23
2023-10-20T12:48:56.082Z,1.00
2023-10-20T12:51:22.438Z,1.13
2023-10-20T12:53:48.785Z,1.10
2023-10-20T12:56:15.085Z,0.90
2023-10-20T12:58:41.326Z,0.98
2023-10-20T13:01:07.800Z,1.10
2023-10-20T13:03:34.296Z,0.85
2023-10-20T13:06:00.747Z,0.68
2023-10-20T13:08:27.117Z,0.80
2023-10-20T13:10:53.445Z,0.85
2023-10-20T13:13:19.797Z,1.10
2023-10-20T13:15:46.239Z,0.85
2023-10-20T13:18:16.614Z,0.70
2023-10-20T13:20:44.669Z,0.70
2023-10-20T13:23:10.995Z,0.70
2023-10-20T13:25:37.262Z,0.77
2023-10-20T13:28:05.388Z,0.65
2023-10-20T13:30:31.700Z,0.52
2023-10-20T13:32:58.336Z,0.50
2023-10-20T13:35:24.729Z,0.60
2023-10-20T13:37:51.034Z,0.70
2023-10-20T13:40:17.330Z,1.10
2023-10-20T13:42:43.621Z,0.70
2023-10-20T13:45:10.351Z,0.60
2023-10-20T13:47:36.715Z,0.50
2023-10-20T13:50:05.417Z,0.43
2023-10-20T13:52:31.710Z,0.50
2023-10-20T13:54:57.987Z,0.25
2023-10-20T13:57:24.301Z,0.47
2023-10-20T13:59:50.767Z,0.52
2023-10-20T14:02:18.850Z,0.50
2023-10-20T14:04:45.345Z,0.55
2023-10-20T14:07:11.679Z,0.63
2023-10-20T14:09:37.947Z,0.40
2023-10-20T14:12:05.801Z,0.30
2023-10-20T14:14:32.210Z,0.22
2023-10-20T14:17:06.797Z,0.57
2023-10-20T14:19:33.834Z,0.40
2023-10-20T14:22:00.480Z,0.63
2023-10-20T14:24:26.738Z,0.70
2023-10-20T14:26:53.042Z,0.63
2023-10-20T14:29:19.378Z,0.40
2023-10-20T14:31:45.699Z,0.45
2023-10-20T14:34:11.976Z,0.10
2023-10-20T14:36:38.245Z,0.30
2023-10-20T14:39:04.798Z,0.38
2023-10-20T14:41:31.125Z,0.30
2023-10-20T14:43:57.432Z,0.30
2023-10-20T14:46:23.743Z,0.50
2023-10-20T14:48:50.144Z,0.30
2023-10-20T14:51:16.526Z,0.80
2023-10-20T14:53:42.953Z,0.50
2023-10-20T14:56:14.793Z,0.70
2023-10-20T14:58:41.305Z,0.80
2023-10-20T15:01:07.732Z,0.60
2023-10-20T15:03:34.150Z,0.70
2023-10-20T15:06:05.778Z,1.00
2023-10-20T15:08:34.334Z,1.02
2023-10-20T15:11:05.314Z,0.77
2023-10-20T15:13:32.439Z,0.73
2023-10-20T15:16:02.808Z,0.75
2023-10-20T15:18:29.418Z,1.10
2023-10-20T15:20:55.794Z,1.20
2023-10-20T15:23:22.165Z,1.67
2023-10-20T15:25:48.507Z,1.88
2023-10-20T15:28:14.846Z,1.98
2023-10-20T15:30:41.095Z,1.77
2023-10-20T15:33:08.375Z,1.02
2023-10-20T15:35:35.032Z,3.30
2023-10-20T15:38:04.174Z,4.03
2023-10-20T15:40:30.495Z,3.63
2023-10-20T15:42:56.804Z,2.25
2023-10-20T15:45:23.234Z,3.05
2023-10-20T15:47:50.199Z,5.28
2023-10-20T15:50:16.600Z,3.50
2023-10-20T15:52:42.878Z,3.13
2023-10-20T15:55:09.311Z,4.38
2023-10-20T15:57:38.532Z,8.48
2023-10-20T16:00:05.329Z,10.50
2023-10-20T16:02:31.952Z,3.88
2023-10-20T16:04:58.400Z,3.20
2023-10-20T16:07:25.086Z,3.75
2023-10-20T16:09:51.358Z,2.50
2023-10-20T16:12:17.990Z,2.83
2023-10-20T16:14:44.592Z,2.88
2023-10-20T16:17:11.348Z,1.77
2023-10-20T16:19:38.576Z,2.83
2023-10-20T16:22:05.147Z,2.53
2023-10-20T16:24:31.533Z,3.08
2023-10-20T16:26:59.810Z,5.35
2023-10-20T16:29:26.329Z,6.10
2023-10-20T16:31:52.694Z,4.95
2023-10-20T16:34:19.701Z,4.85
2023-10-20T16:36:45.995Z,1.98
2023-10-20T16:39:13.581Z,0.70
2023-10-20T16:41:39.941Z,0.80
2023-10-20T16:44:06.397Z,1.13
2023-10-20T16:46:32.742Z,1.00
2023-10-20T16:48:59.112Z,1.10
2023-10-20T16:51:25.387Z,1.00
2023-10-20T16:53:51.682Z,1.10
2023-10-20T16:56:18.045Z,1.45
2023-10-20T16:58:44.372Z,0.90
2023-10-20T17:01:10.726Z,1.00
2023-10-20T17:03:37.257Z,0.90
2023-10-20T17:06:04.582Z,1.00
2023-10-20T17:08:31.570Z,1.27
2023-10-20T17:13:25.415Z,0.73
2023-10-20T17:15:51.690Z,1.27
2023-10-20T17:18:17.974Z,2.40
2023-10-20T17:20:44.455Z,2.20
2023-10-20T17:23:10.955Z,2.35
2023-10-20T17:25:42.512Z,2.50
2023-10-20T17:28:08.884Z,2.95
2023-10-20T17:30:36.456Z,1.08
2023-10-20T17:33:02.824Z,1.00
2023-10-20T17:35:29.157Z,0.80
2023-10-20T17:37:58.072Z,1.25
2023-10-20T17:40:24.438Z,1.10
2023-10-20T17:42:50.819Z,1.35
2023-10-20T17:45:17.195Z,1.20
2023-10-20T17:47:43.534Z,1.42
2023-10-20T17:50:10.184Z,1.13
2023-10-20T17:52:36.452Z,0.70
2023-10-20T17:55:02.726Z,1.38
2023-10-20T17:57:28.969Z,1.75
2023-10-20T17:59:55.349Z,1.58
2023-10-20T18:02:21.705Z,1.83
2023-10-20T18:04:49.101Z,1.75
2023-10-20T18:07:15.345Z,1.35
2023-10-20T18:09:41.612Z,1.40
2023-10-20T18:12:08.695Z,1.40
2023-10-20T18:14:35.028Z,1.38
2023-10-20T18:17:01.376Z,1.35
2023-10-20T18:19:28.532Z,1.52
2023-10-20T18:21:54.794Z,1.33
2023-10-20T18:24:21.079Z,1.55
2023-10-20T18:26:47.492Z,1.15
2023-10-20T18:29:13.811Z,1.10
2023-10-20T18:31:40.117Z,1.10
2023-10-20T18:34:07.220Z,1.85
2023-10-20T18:36:34.634Z,1.75
2023-10-20T18:39:00.974Z,1.77
2023-10-20T18:41:28.296Z,2.03
2023-10-20T18:43:54.870Z,1.98
2023-10-20T18:46:21.451Z,1.77
2023-10-20T18:48:49.364Z,1.80
2023-10-20T18:51:16.571Z,2.42
2023-10-20T18:53:43.544Z,2.33
2023-10-20T18:56:10.090Z,2.10
2023-10-20T18:58:37.525Z,2.17
2023-10-20T19:01:03.853Z,3.47
2023-10-20T19:03:32.884Z,2.85
2023-10-20T19:05:59.626Z,3.17
2023-10-20T19:08:26.211Z,2.42
2023-10-20T19:10:52.485Z,3.30
2023-10-20T19:13:18.782Z,2.47
2023-10-20T19:15:45.035Z,2.17
2023-10-20T19:18:11.348Z,1.55
2023-10-20T19:20:37.828Z,1.88
2023-10-20T19:23:06.592Z,1.67
2023-10-20T19:25:33.341Z,1.50
2023-10-20T19:27:59.586Z,1.73
2023-10-20T19:30:59.423Z,2.00
2023-10-20T19:33:25.807Z,2.10
2023-10-20T19:35:52.160Z,2.17
2023-10-20T19:38:18.409Z,1.60
2023-10-20T19:40:44.736Z,2.17
2023-10-20T19:43:11.007Z,2.78
2023-10-20T19:45:37.344Z,2.15
2023-10-20T19:48:03.804Z,1.90
2023-10-20T19:50:30.215Z,2.63
2023-10-20T19:52:56.526Z,1.90
2023-10-20T19:55:22.884Z,1.88
2023-10-20T19:57:49.136Z,2.13
2023-10-20T20:00:19.632Z,2.10
2023-10-20T20:02:46.329Z,2.25
2023-10-20T20:05:12.700Z,2.05
2023-10-20T20:07:39.071Z,2.38
2023-10-20T20:10:06.603Z,2.10
2023-10-20T20:12:33.268Z,2.25
2023-10-20T20:15:02.524Z,2.05
2023-10-20T20:17:28.913Z,2.70
2023-10-20T20:19:56.554Z,3.00
2023-10-20T20:22:23.184Z,4.30
2023-10-20T20:24:49.471Z,3.25
2023-10-20T20:27:15.736Z,2.03
2023-10-20T20:29:42.177Z,1.90
2023-10-20T20:32:08.464Z,2.30
2023-10-20T20:34:35.102Z,1.98
2023-10-20T20:37:01.397Z,1.75
2023-10-20T20:39:27.712Z,1.77
2023-10-20T20:41:54.146Z,1.70
2023-10-20T20:44:20.499Z,2.42
2023-10-20T20:46:48.046Z,2.60
2023-10-20T20:49:14.907Z,2.30
2023-10-20T20:51:41.702Z,2.10
2023-10-20T20:54:08.038Z,1.85
2023-10-20T20:56:34.597Z,1.98
2023-10-20T20:59:00.867Z,2.08
2023-10-20T21:01:27.653Z,1.80
2023-10-20T21:04:00.870Z,1.80
2023-10-20T21:06:28.136Z,1.83
2023-10-20T21:08:54.744Z,3.70
2023-10-20T21:11:21.241Z,2.42
2023-10-20T21:13:47.797Z,2.47
2023-10-20T21:16:14.220Z,1.80
2023-10-20T21:18:40.595Z,1.80
2023-10-20T21:21:16.406Z,1.85
2023-10-20T21:23:45.926Z,1.83
2023-10-20T21:26:12.673Z,2.42
2023-10-20T21:28:39.488Z,2.00
2023-10-20T21:31:06.189Z,2.03
2023-10-20T21:33:32.926Z,2.17
2023-10-20T21:35:59.482Z,2.42
2023-10-20T21:38:25.792Z,2.28
2023-10-20T21:40:53.404Z,2.38
2023-10-20T21:43:19.756Z,1.98
2023-10-20T21:45:56.500Z,1.83
2023-10-20T21:48:26.313Z,1.73
2023-10-20T21:50:56.594Z,2.20
2023-10-20T21:53:22.981Z,1.75
2023-10-20T21:55:49.359Z,1.95
2023-10-20T21:58:15.717Z,1.80
2023-10-20T22:00:45.601Z,1.85
2023-10-20T22:03:13.536Z,1.67
2023-10-20T22:05:39.983Z,2.15
2023-10-20T22:08:06.331Z,1.58
2023-10-20T22:10:32.569Z,1.33
2023-10-20T22:12:58.920Z,2.20
2023-10-20T22:15:26.433Z,1.30
2023-10-20T22:17:52.799Z,2.05
2023-10-20T22:20:19.069Z,1.90
2023-10-20T22:22:45.319Z,1.70
2023-10-20T22:25:11.564Z,1.65
2023-10-20T22:27:37.827Z,1.58
2023-10-20T22:30:04.793Z,1.58
2023-10-20T22:34:57.298Z,1.80
2023-10-20T22:37:23.634Z,1.52
2023-10-20T22:39:49.872Z,2.72
2023-10-20T22:42:16.549Z,1.40
2023-10-20T22:44:42.881Z,1.52
2023-10-20T22:47:09.192Z,2.10
2023-10-20T22:49:35.629Z,1.17
2023-10-20T22:52:02.015Z,1.52
2023-10-20T22:54:28.270Z,1.67
2023-10-20T22:56:54.571Z,1.13
2023-10-20T22:59:20.945Z,1.38
2023-10-20T23:01:47.259Z,1.40
2023-10-20T23:04:15.551Z,1.48
2023-10-20T23:06:44.468Z,1.52
2023-10-20T23:09:10.783Z,1.90
2023-10-20T23:11:37.084Z,2.58
2023-10-20T23:14:04.198Z,2.22
2023-10-20T23:16:30.749Z,1.83
2023-10-20T23:18:57.773Z,1.42
2023-10-20T23:23:50.271Z,0.70
2023-10-20T23:26:16.600Z,1.17
2023-10-20T23:28:42.863Z,0.88
2023-10-20T23:31:09.361Z,1.00
2023-10-20T23:33:35.890Z,0.85
2023-10-20T23:36:02.275Z,0.90
2023-10-20T23:38:28.569Z,1.05
2023-10-20T23:40:54.866Z,1.20
2023-10-20T23:43:21.207Z,1.10
2023-10-20T23:45:47.494Z,0.75
2023-10-20T23:48:13.812Z,0.73
2023-10-20T23:50:40.355Z,0.90
2023-10-20T23:53:06.689Z,1.10
2023-10-20T23:55:32.955Z,0.73
2023-10-20T23:57:59.496Z,0.82
